Time,TemperatureF,DewpointF,PressureIn,WindDirection,WindDirectionDegrees,WindSpeedMPH,WindSpeedGustMPH,Humidity,HourlyPrecipIn,Conditions,Clouds,dailyrainin,SolarRadiationWatts/m^2,SoftwareType,DateUTC
2013-03-17 00:00:00,27.9,17.3,29.93,WSW,254,2.0,2.0,64,0.00,,,0.00,0,Wunderground v.1.15,2013-03-17 04:00:00,
2013-03-17 00:01:00,27.9,17.3,29.93,West,266,2.0,2.0,64,0.00,,,0.00,0,Wunderground v.1.15,2013-03-17 04:01:00,
2013-03-17 00:02:00,27.9,17.3,29.93,WNW,288,2.0,2.0,64,0.00,,,0.00,0,Wunderground v.1.15,2013-03-17 04:02:00,
2013-03-17 00:03:00,27.9,17.3,29.93,WNW,288,2.0,2.0,64,0.00,,,0.00,0,Wunderground v.1.15,2013-03-17 04:03:00,
2013-03-17 00:08:00,27.8,17.2,29.93,WSW,244,2.0,3.0,64,0.00,,,0.00,0,Wunderground v.1.15,2013-03-17 04:08:00,
2013-03-17 08:01:00,22.4,13.4,30.08,West,265,0.0,8.0,68,0.00,,,0.00,25,Wunderground v.1.15,2013-03-17 12:01:00,
2013-03-17 08:06:00,22.6,13.6,30.08,WSW,251,1.0,8.0,68,0.00,,,0.00,26,Wunderground v.1.15,2013-03-17 12:06:00,
2013-03-17 08:11:00,22.8,13.8,30.08,West,278,2.0,2.0,68,0.00,,,0.00,28,Wunderground v.1.15,2013-03-17 12:11:00,
2013-03-17 08:17:00,23.0,13.7,30.08,West,265,2.0,8.0,67,0.00,,,0.00,26,Wunderground v.1.15,2013-03-17 12:17:00,
2013-03-17 08:23:00,23.3,14.3,30.08,WNW,286,2.0,8.0,68,0.00,,,0.00,26,Wunderground v.1.15,2013-03-17 12:23:00,
2013-03-17 08:28:00,23.6,14.6,30.09,West,271,2.0,8.0,68,0.00,,,0.00,28,Wunderground v.1.15,2013-03-17 12:28:00,
2013-03-17 08:33:00,23.5,14.1,30.09,West,264,3.0,8.0,67,0.00,,,0.00,28,Wunderground v.1.15,2013-03-17 12:33:00,
2013-03-17 08:39:00,23.8,14.8,30.09,West,259,3.0,8.0,68,0.00,,,0.00,30,Wunderground v.1.15,2013-03-17 12:39:00,
2013-03-17 08:45:00,24.1,15.1,30.09,WNW,295,4.0,8.0,68,0.00,,,0.00,32,Wunderground v.1.15,2013-03-17 12:45:00,
2013-03-17 08:50:00,24.3,15.3,30.09,WNW,294,4.0,8.0,68,0.00,,,0.00,26,Wunderground v.1.15,2013-03-17 12:50:00,
2013-03-17 08:56:00,24.5,15.4,30.10,West,266,4.0,8.0,68,0.00,,,0.00,30,Wunderground v.1.15,2013-03-17 12:56:00,
2013-03-17 09:02:00,24.7,15.3,30.10,West,264,3.0,6.0,67,0.00,,,0.00,32,Wunderground v.1.15,2013-03-17 13:02:00,
2013-03-17 09:07:00,24.9,15.5,30.10,NW,308,5.0,9.0,67,0.00,,,0.00,28,Wunderground v.1.15,2013-03-17 13:07:00,
2013-03-17 09:12:00,24.8,15.0,30.10,ENE,64,5.0,5.0,66,0.00,,,0.00,32,Wunderground v.1.15,2013-03-17 13:12:00,
2013-03-17 09:17:00,25.0,14.9,30.11,WNW,298,5.0,6.0,65,0.00,,,0.00,33,Wunderground v.1.15,2013-03-17 13:17:00,
2013-03-17 09:23:00,25.3,15.2,30.11,WNW,293,4.0,4.0,65,0.00,,,0.00,35,Wunderground v.1.15,2013-03-17 13:23:00,
2013-03-17 09:28:00,25.6,14.7,30.11,West,272,4.0,11.0,63,0.00,,,0.00,35,Wunderground v.1.15,2013-03-17 13:28:00,
2013-03-17 09:34:00,26.0,14.8,30.11,WNW,292,4.0,9.0,62,0.00,,,0.00,35,Wunderground v.1.15,2013-03-17 13:34:00,
2013-03-17 09:40:00,26.2,14.6,30.12,NNW,327,4.0,9.0,61,0.00,,,0.00,37,Wunderground v.1.15,2013-03-17 13:40:00,
2013-03-17 09:46:00,26.2,14.2,30.12,NNW,338,5.0,9.0,60,0.00,,,0.00,39,Wunderground v.1.15,2013-03-17 13:46:00,
2013-03-17 09:51:00,26.5,14.1,30.12,WSW,238,5.0,5.0,59,0.00,,,0.00,40,Wunderground v.1.15,2013-03-17 13:51:00,
2013-03-17 09:56:00,26.5,13.7,30.12,West,275,5.0,9.0,58,0.00,,,0.00,39,Wunderground v.1.15,2013-03-17 13:56:00,
2013-03-17 10:02:00,26.3,13.1,30.12,WNW,294,6.0,6.0,57,0.00,,,0.00,53,Wunderground v.1.15,2013-03-17 14:02:00,
2013-03-17 10:07:00,26.6,14.0,30.12,West,272,7.0,11.0,58,0.00,,,0.00,37,weatherlink.com 1.10,2013-03-17 14:07:00,
2013-03-17 10:13:00,26.8,14.0,30.13,WNW,291,3.0,4.0,58,0.00,,,0.00,40,Wunderground v.1.15,2013-03-17 14:13:00,
2013-03-17 10:18:00,26.8,13.2,30.13,WNW,296,4.0,9.0,56,0.00,,,0.00,42,Wunderground v.1.15,2013-03-17 14:18:00,
2013-03-17 10:24:00,26.9,14.1,30.13,WNW,286,4.0,6.0,58,0.00,,,0.00,42,Wunderground v.1.15,2013-03-17 14:24:00,
2013-03-17 10:29:00,27.4,13.3,30.13,NNE,20,4.0,6.0,55,0.00,,,0.00,40,Wunderground v.1.15,2013-03-17 14:29:00,
2013-03-17 10:34:00,27.7,14.0,30.13,NNW,330,4.0,13.0,56,0.00,,,0.00,40,Wunderground v.1.15,2013-03-17 14:34:00,
2013-03-17 10:40:00,28.0,13.9,30.13,WNW,288,4.0,4.0,55,0.00,,,0.00,40,Wunderground v.1.15,2013-03-17 14:40:00,
2013-03-17 10:45:00,28.5,13.1,30.13,WNW,284,5.0,13.0,52,0.00,,,0.00,40,Wunderground v.1.15,2013-03-17 14:45:00,
2013-03-17 10:51:00,28.3,14.2,30.13,WSW,248,6.0,13.0,55,0.00,,,0.00,42,Wunderground v.1.15,2013-03-17 14:51:00,
2013-03-17 10:56:00,28.7,14.1,30.13,NW,305,5.0,13.0,54,0.00,,,0.00,42,Wunderground v.1.15,2013-03-17 14:56:00,
2013-03-17 11:01:00,28.8,12.9,30.13,North,355,4.0,7.0,51,0.00,,,0.00,44,Wunderground v.1.15,2013-03-17 15:01:00,
2013-03-17 11:07:00,28.8,14.2,30.13,NNW,342,4.0,7.0,54,0.00,,,0.00,72,Wunderground v.1.15,2013-03-17 15:07:00,
2013-03-17 11:12:00,29.2,13.3,30.13,NW,318,5.0,8.0,51,0.00,,,0.00,49,Wunderground v.1.15,2013-03-17 15:12:00,
2013-03-17 11:18:00,29.2,13.0,30.13,WSW,246,1.0,13.0,51,0.00,,,0.00,60,weatherlink.com 1.10,2013-03-17 15:18:00,
2013-03-17 11:23:00,29.5,13.1,30.13,North,355,3.0,4.0,50,0.00,,,0.00,58,Wunderground v.1.15,2013-03-17 15:23:00,
2013-03-17 11:29:00,29.9,13.0,30.13,NW,323,4.0,8.0,49,0.00,,,0.00,51,Wunderground v.1.15,2013-03-17 15:29:00,
2013-03-17 11:35:00,30.3,13.4,30.13,NNW,348,5.0,12.0,49,0.00,,,0.00,56,Wunderground v.1.15,2013-03-17 15:35:00,
2013-03-17 11:40:00,30.4,13.5,30.13,NNE,24,4.0,12.0,49,0.00,,,0.00,69,Wunderground v.1.15,2013-03-17 15:40:00,
2013-03-17 11:46:00,31.0,13.6,30.13,West,277,3.0,12.0,48,0.00,,,0.00,91,Wunderground v.1.15,2013-03-17 15:46:00,
2013-03-17 11:52:00,31.2,11.8,30.13,NW,318,4.0,12.0,44,0.00,,,0.00,84,Wunderground v.1.15,2013-03-17 15:52:00,
2013-03-17 11:58:00,31.6,12.2,30.13,WNW,296,4.0,12.0,44,0.00,,,0.00,98,Wunderground v.1.15,2013-03-17 15:58:00,
2013-03-17 12:03:00,32.7,13.7,30.14,West,270,4.0,5.0,45,0.00,,,0.00,178,Wunderground v.1.15,2013-03-17 16:03:00,